sensor_id;sensor_type;location;lat;lon;timestamp;P1;durP1;ratioP1;P2;durP2;ratioP2
31638;SDS011;18248;51.522;7.020;2023-03-25T00:02:33;7.22;;;1.25;;
31638;SDS011;18248;51.522;7.020;2023-03-25T00:05:32;9.13;;;1.10;;
31638;SDS011;18248;51.522;7.020;2023-03-25T00:08:32;5.80;;;1.30;;
31638;SDS011;18248;51.522;7.020;2023-03-25T00:11:31;4.53;;;1.30;;
31638;SDS011;18248;51.522;7.020;2023-03-25T00:14:29;6.03;;;1.15;;
31638;SDS011;18248;51.522;7.020;2023-03-25T00:17:30;7.57;;;1.40;;
31638;SDS011;18248;51.522;7.020;2023-03-25T00:20:28;8.57;;;1.20;;
31638;SDS011;18248;51.522;7.020;2023-03-25T00:23:29;5.20;;;1.00;;
31638;SDS011;18248;51.522;7.020;2023-03-25T00:26:29;7.78;;;1.10;;
31638;SDS011;18248;51.522;7.020;2023-03-25T00:29:29;5.32;;;1.30;;
31638;SDS011;18248;51.522;7.020;2023-03-25T00:32:27;7.28;;;1.50;;
31638;SDS011;18248;51.522;7.020;2023-03-25T00:35:26;5.32;;;1.20;;
31638;SDS011;18248;51.522;7.020;2023-03-25T00:38:29;10.43;;;1.83;;
31638;SDS011;18248;51.522;7.020;2023-03-25T00:41:34;6.80;;;1.45;;
31638;SDS011;18248;51.522;7.020;2023-03-25T00:44:35;3.55;;;1.17;;
31638;SDS011;18248;51.522;7.020;2023-03-25T00:47:35;8.73;;;1.77;;
31638;SDS011;18248;51.522;7.020;2023-03-25T00:50:34;6.18;;;1.27;;
31638;SDS011;18248;51.522;7.020;2023-03-25T00:53:33;6.63;;;1.17;;
31638;SDS011;18248;51.522;7.020;2023-03-25T00:56:32;5.50;;;1.25;;
31638;SDS011;18248;51.522;7.020;2023-03-25T00:59:30;7.60;;;1.65;;
31638;SDS011;18248;51.522;7.020;2023-03-25T01:02:29;8.05;;;1.58;;
31638;SDS011;18248;51.522;7.020;2023-03-25T01:05:28;2.95;;;1.23;;
31638;SDS011;18248;51.522;7.020;2023-03-25T01:08:27;7.22;;;1.00;;
31638;SDS011;18248;51.522;7.020;2023-03-25T01:11:30;4.25;;;1.33;;
31638;SDS011;18248;51.522;7.020;2023-03-25T01:14:31;7.75;;;1.58;;
31638;SDS011;18248;51.522;7.020;2023-03-25T01:17:30;4.88;;;1.65;;
31638;SDS011;18248;51.522;7.020;2023-03-25T01:20:29;11.02;;;1.73;;
31638;SDS011;18248;51.522;7.020;2023-03-25T01:23:29;5.43;;;1.45;;
31638;SDS011;18248;51.522;7.020;2023-03-25T01:26:28;3.95;;;1.02;;
31638;SDS011;18248;51.522;7.020;2023-03-25T01:29:28;5.57;;;1.13;;
31638;SDS011;18248;51.522;7.020;2023-03-25T01:32:27;9.43;;;1.80;;
31638;SDS011;18248;51.522;7.020;2023-03-25T01:35:26;9.88;;;1.23;;
31638;SDS011;18248;51.522;7.020;2023-03-25T01:38:26;13.38;;;2.13;;
31638;SDS011;18248;51.522;7.020;2023-03-25T01:41:28;4.70;;;1.20;;
31638;SDS011;18248;51.522;7.020;2023-03-25T01:47:26;7.05;;;1.55;;
31638;SDS011;18248;51.522;7.020;2023-03-25T01:50:26;7.07;;;1.52;;
31638;SDS011;18248;51.522;7.020;2023-03-25T01:53:26;10.57;;;1.88;;
31638;SDS011;18248;51.522;7.020;2023-03-25T01:56:29;8.80;;;1.63;;
31638;SDS011;18248;51.522;7.020;2023-03-25T01:59:31;9.25;;;1.98;;
31638;SDS011;18248;51.522;7.020;2023-03-25T02:02:29;7.43;;;1.63;;
31638;SDS011;18248;51.522;7.020;2023-03-25T02:05:36;8.57;;;1.60;;
31638;SDS011;18248;51.522;7.020;2023-03-25T02:08:55;6.75;;;1.33;;
31638;SDS011;18248;51.522;7.020;2023-03-25T02:11:55;7.95;;;1.33;;
31638;SDS011;18248;51.522;7.020;2023-03-25T02:14:54;9.30;;;1.40;;
31638;SDS011;18248;51.522;7.020;2023-03-25T02:24:55;9.00;;;1.70;;
31638;SDS011;18248;51.522;7.020;2023-03-25T02:28:13;6.63;;;1.63;;
31638;SDS011;18248;51.522;7.020;2023-03-25T02:35:45;6.80;;;1.42;;
31638;SDS011;18248;51.522;7.020;2023-03-25T02:38:34;6.22;;;1.67;;
31638;SDS011;18248;51.522;7.020;2023-03-25T02:41:39;9.43;;;1.65;;
31638;SDS011;18248;51.522;7.020;2023-03-25T02:44:54;8.13;;;1.77;;
31638;SDS011;18248;51.522;7.020;2023-03-25T02:48:09;8.50;;;1.65;;
31638;SDS011;18248;51.522;7.020;2023-03-25T02:51:13;7.78;;;1.77;;
31638;SDS011;18248;51.522;7.020;2023-03-25T02:54:18;7.75;;;1.80;;
31638;SDS011;18248;51.522;7.020;2023-03-25T02:57:20;7.38;;;1.55;;
31638;SDS011;18248;51.522;7.020;2023-03-25T03:00:22;6.53;;;1.52;;
31638;SDS011;18248;51.522;7.020;2023-03-25T03:03:26;6.57;;;1.70;;
31638;SDS011;18248;51.522;7.020;2023-03-25T03:06:25;8.20;;;1.90;;
31638;SDS011;18248;51.522;7.020;2023-03-25T03:09:34;6.32;;;1.70;;
31638;SDS011;18248;51.522;7.020;2023-03-25T03:12:43;4.35;;;1.25;;
31638;SDS011;18248;51.522;7.020;2023-03-25T03:16:06;13.00;;;2.00;;
31638;SDS011;18248;51.522;7.020;2023-03-25T03:19:41;7.03;;;1.70;;
31638;SDS011;18248;51.522;7.020;2023-03-25T03:25:50;8.40;;;1.73;;
31638;SDS011;18248;51.522;7.020;2023-03-25T03:28:56;8.43;;;2.50;;
31638;SDS011;18248;51.522;7.020;2023-03-25T03:32:14;7.85;;;2.13;;
31638;SDS011;18248;51.522;7.020;2023-03-25T03:35:26;5.43;;;1.52;;
31638;SDS011;18248;51.522;7.020;2023-03-25T03:38:59;8.27;;;1.88;;
31638;SDS011;18248;51.522;7.020;2023-03-25T03:48:54;10.23;;;1.80;;
31638;SDS011;18248;51.522;7.020;2023-03-25T03:52:01;6.40;;;1.65;;
31638;SDS011;18248;51.522;7.020;2023-03-25T03:55:31;7.32;;;1.55;;
31638;SDS011;18248;51.522;7.020;2023-03-25T03:58:36;9.50;;;2.10;;
31638;SDS011;18248;51.522;7.020;2023-03-25T04:01:44;7.10;;;1.63;;
31638;SDS011;18248;51.522;7.020;2023-03-25T04:04:46;5.90;;;1.63;;
31638;SDS011;18248;51.522;7.020;2023-03-25T04:07:46;9.38;;;1.90;;
31638;SDS011;18248;51.522;7.020;2023-03-25T04:10:54;7.60;;;1.80;;
31638;SDS011;18248;51.522;7.020;2023-03-25T04:13:57;8.50;;;1.95;;
31638;SDS011;18248;51.522;7.020;2023-03-25T04:16:57;13.45;;;1.98;;
31638;SDS011;18248;51.522;7.020;2023-03-25T04:19:56;11.93;;;2.05;;
31638;SDS011;18248;51.522;7.020;2023-03-25T04:22:55;7.45;;;2.33;;
31638;SDS011;18248;51.522;7.020;2023-03-25T04:25:54;12.02;;;2.00;;
31638;SDS011;18248;51.522;7.020;2023-03-25T04:28:54;9.23;;;1.65;;
31638;SDS011;18248;51.522;7.020;2023-03-25T04:31:56;11.68;;;1.73;;
31638;SDS011;18248;51.522;7.020;2023-03-25T04:34:55;10.18;;;2.03;;
31638;SDS011;18248;51.522;7.020;2023-03-25T04:37:54;9.93;;;1.92;;
31638;SDS011;18248;51.522;7.020;2023-03-25T04:40:54;9.45;;;1.80;;
31638;SDS011;18248;51.522;7.020;2023-03-25T04:43:52;9.27;;;1.90;;
31638;SDS011;18248;51.522;7.020;2023-03-25T04:46:51;9.30;;;1.75;;
31638;SDS011;18248;51.522;7.020;2023-03-25T04:49:49;10.85;;;1.98;;
31638;SDS011;18248;51.522;7.020;2023-03-25T04:52:48;11.90;;;1.90;;
31638;SDS011;18248;51.522;7.020;2023-03-25T04:55:48;11.48;;;3.08;;
31638;SDS011;18248;51.522;7.020;2023-03-25T04:58:47;14.48;;;1.83;;
31638;SDS011;18248;51.522;7.020;2023-03-25T05:01:45;8.80;;;2.15;;
31638;SDS011;18248;51.522;7.020;2023-03-25T05:04:44;7.18;;;1.70;;
31638;SDS011;18248;51.522;7.020;2023-03-25T05:07:44;12.95;;;1.65;;
31638;SDS011;18248;51.522;7.020;2023-03-25T05:10:44;10.68;;;1.90;;
31638;SDS011;18248;51.522;7.020;2023-03-25T05:13:43;11.65;;;1.73;;
31638;SDS011;18248;51.522;7.020;2023-03-25T05:16:43;11.10;;;1.80;;
31638;SDS011;18248;51.522;7.020;2023-03-25T05:19:42;7.78;;;1.50;;
31638;SDS011;18248;51.522;7.020;2023-03-25T05:22:41;8.05;;;1.40;;
31638;SDS011;18248;51.522;7.020;2023-03-25T05:25:43;14.30;;;2.03;;
31638;SDS011;18248;51.522;7.020;2023-03-25T05:28:44;8.15;;;1.77;;
31638;SDS011;18248;51.522;7.020;2023-03-25T05:31:43;13.63;;;1.90;;
31638;SDS011;18248;51.522;7.020;2023-03-25T05:34:43;8.75;;;1.70;;
31638;SDS011;18248;51.522;7.020;2023-03-25T05:37:45;9.98;;;1.90;;
31638;SDS011;18248;51.522;7.020;2023-03-25T05:40:44;11.00;;;1.73;;
31638;SDS011;18248;51.522;7.020;2023-03-25T05:43:43;8.85;;;1.80;;
31638;SDS011;18248;51.522;7.020;2023-03-25T05:46:43;11.48;;;1.55;;
31638;SDS011;18248;51.522;7.020;2023-03-25T05:49:42;13.57;;;1.65;;
31638;SDS011;18248;51.522;7.020;2023-03-25T05:52:40;9.52;;;1.50;;
31638;SDS011;18248;51.522;7.020;2023-03-25T05:55:40;12.20;;;1.42;;
31638;SDS011;18248;51.522;7.020;2023-03-25T05:58:39;9.10;;;1.55;;
31638;SDS011;18248;51.522;7.020;2023-03-25T06:01:37;13.05;;;1.75;;
31638;SDS011;18248;51.522;7.020;2023-03-25T06:04:36;10.93;;;1.75;;
31638;SDS011;18248;51.522;7.020;2023-03-25T06:07:35;10.45;;;1.92;;
31638;SDS011;18248;51.522;7.020;2023-03-25T06:10:35;6.95;;;1.60;;
31638;SDS011;18248;51.522;7.020;2023-03-25T06:13:33;12.15;;;1.70;;
31638;SDS011;18248;51.522;7.020;2023-03-25T06:16:35;7.47;;;1.92;;
31638;SDS011;18248;51.522;7.020;2023-03-25T06:19:33;10.45;;;2.58;;
31638;SDS011;18248;51.522;7.020;2023-03-25T06:22:36;11.80;;;1.95;;
31638;SDS011;18248;51.522;7.020;2023-03-25T06:25:36;14.23;;;2.05;;
31638;SDS011;18248;51.522;7.020;2023-03-25T06:28:35;11.27;;;2.58;;
31638;SDS011;18248;51.522;7.020;2023-03-25T06:31:33;13.02;;;2.63;;
31638;SDS011;18248;51.522;7.020;2023-03-25T06:34:32;15.10;;;2.58;;
31638;SDS011;18248;51.522;7.020;2023-03-25T06:37:33;14.80;;;2.40;;
31638;SDS011;18248;51.522;7.020;2023-03-25T06:40:32;10.52;;;2.42;;
31638;SDS011;18248;51.522;7.020;2023-03-25T06:43:32;12.32;;;3.03;;
31638;SDS011;18248;51.522;7.020;2023-03-25T06:46:31;7.78;;;1.95;;
31638;SDS011;18248;51.522;7.020;2023-03-25T06:49:30;11.25;;;2.28;;
31638;SDS011;18248;51.522;7.020;2023-03-25T06:52:30;14.07;;;2.13;;
31638;SDS011;18248;51.522;7.020;2023-03-25T06:55:29;14.15;;;2.20;;
31638;SDS011;18248;51.522;7.020;2023-03-25T06:58:28;10.85;;;1.73;;
31638;SDS011;18248;51.522;7.020;2023-03-25T07:01:31;15.70;;;2.45;;
31638;SDS011;18248;51.522;7.020;2023-03-25T07:04:30;11.45;;;2.33;;
31638;SDS011;18248;51.522;7.020;2023-03-25T07:07:29;13.30;;;2.83;;
31638;SDS011;18248;51.522;7.020;2023-03-25T07:10:29;9.77;;;2.50;;
31638;SDS011;18248;51.522;7.020;2023-03-25T07:13:29;14.52;;;2.50;;
31638;SDS011;18248;51.522;7.020;2023-03-25T07:16:28;11.85;;;2.42;;
31638;SDS011;18248;51.522;7.020;2023-03-25T07:19:26;19.67;;;3.58;;
31638;SDS011;18248;51.522;7.020;2023-03-25T07:22:25;12.32;;;2.63;;
31638;SDS011;18248;51.522;7.020;2023-03-25T07:25:23;15.57;;;3.17;;
31638;SDS011;18248;51.522;7.020;2023-03-25T07:28:22;16.27;;;3.40;;
31638;SDS011;18248;51.522;7.020;2023-03-25T07:31:21;21.67;;;3.35;;
31638;SDS011;18248;51.522;7.020;2023-03-25T07:34:19;19.38;;;2.53;;
31638;SDS011;18248;51.522;7.020;2023-03-25T07:37:18;9.52;;;2.88;;
31638;SDS011;18248;51.522;7.020;2023-03-25T07:40:16;14.68;;;2.53;;
31638;SDS011;18248;51.522;7.020;2023-03-25T07:43:15;17.60;;;2.83;;
31638;SDS011;18248;51.522;7.020;2023-03-25T07:46:13;15.60;;;3.15;;
31638;SDS011;18248;51.522;7.020;2023-03-25T07:49:13;14.05;;;2.95;;
31638;SDS011;18248;51.522;7.020;2023-03-25T07:52:12;12.02;;;2.65;;
31638;SDS011;18248;51.522;7.020;2023-03-25T07:55:11;16.55;;;3.05;;
31638;SDS011;18248;51.522;7.020;2023-03-25T07:58:11;11.85;;;2.33;;
31638;SDS011;18248;51.522;7.020;2023-03-25T08:01:11;14.68;;;2.38;;
31638;SDS011;18248;51.522;7.020;2023-03-25T08:04:09;13.23;;;2.70;;
31638;SDS011;18248;51.522;7.020;2023-03-25T08:07:10;9.20;;;2.50;;
31638;SDS011;18248;51.522;7.020;2023-03-25T08:10:09;16.55;;;2.97;;
31638;SDS011;18248;51.522;7.020;2023-03-25T08:13:08;17.52;;;3.13;;
31638;SDS011;18248;51.522;7.020;2023-03-25T08:16:13;15.88;;;2.70;;
31638;SDS011;18248;51.522;7.020;2023-03-25T08:19:12;10.57;;;2.13;;
31638;SDS011;18248;51.522;7.020;2023-03-25T08:22:11;18.20;;;2.42;;
31638;SDS011;18248;51.522;7.020;2023-03-25T08:25:10;13.10;;;2.70;;
31638;SDS011;18248;51.522;7.020;2023-03-25T08:28:08;14.65;;;2.88;;
31638;SDS011;18248;51.522;7.020;2023-03-25T08:31:07;15.75;;;2.60;;
31638;SDS011;18248;51.522;7.020;2023-03-25T08:34:06;11.85;;;2.50;;
31638;SDS011;18248;51.522;7.020;2023-03-25T08:37:05;12.93;;;2.65;;
31638;SDS011;18248;51.522;7.020;2023-03-25T08:40:05;19.65;;;3.03;;
31638;SDS011;18248;51.522;7.020;2023-03-25T08:43:07;12.77;;;3.28;;
31638;SDS011;18248;51.522;7.020;2023-03-25T08:46:05;15.23;;;2.47;;
31638;SDS011;18248;51.522;7.020;2023-03-25T08:49:04;16.15;;;2.72;;
31638;SDS011;18248;51.522;7.020;2023-03-25T08:52:03;16.58;;;2.67;;
31638;SDS011;18248;51.522;7.020;2023-03-25T08:55:05;18.77;;;2.78;;
31638;SDS011;18248;51.522;7.020;2023-03-25T08:58:05;19.95;;;3.78;;
31638;SDS011;18248;51.522;7.020;2023-03-25T09:01:05;18.42;;;3.10;;
31638;SDS011;18248;51.522;7.020;2023-03-25T09:04:04;16.08;;;2.95;;
31638;SDS011;18248;51.522;7.020;2023-03-25T09:07:04;20.10;;;3.00;;
31638;SDS011;18248;51.522;7.020;2023-03-25T09:10:08;19.27;;;2.88;;
31638;SDS011;18248;51.522;7.020;2023-03-25T09:13:07;22.40;;;3.50;;
31638;SDS011;18248;51.522;7.020;2023-03-25T09:16:06;17.15;;;3.25;;
31638;SDS011;18248;51.522;7.020;2023-03-25T09:19:05;18.45;;;2.97;;
31638;SDS011;18248;51.522;7.020;2023-03-25T09:22:05;22.27;;;3.15;;
31638;SDS011;18248;51.522;7.020;2023-03-25T09:25:05;18.60;;;4.22;;
31638;SDS011;18248;51.522;7.020;2023-03-25T09:28:04;21.60;;;3.30;;
31638;SDS011;18248;51.522;7.020;2023-03-25T09:31:03;18.80;;;3.65;;
31638;SDS011;18248;51.522;7.020;2023-03-25T09:34:02;22.92;;;3.67;;
31638;SDS011;18248;51.522;7.020;2023-03-25T09:37:01;26.25;;;3.33;;
31638;SDS011;18248;51.522;7.020;2023-03-25T09:40:01;14.88;;;2.95;;
31638;SDS011;18248;51.522;7.020;2023-03-25T09:43:03;18.38;;;4.05;;
31638;SDS011;18248;51.522;7.020;2023-03-25T09:46:23;17.38;;;3.65;;
31638;SDS011;18248;51.522;7.020;2023-03-25T09:49:24;20.25;;;3.92;;
31638;SDS011;18248;51.522;7.020;2023-03-25T09:52:55;25.02;;;3.38;;
31638;SDS011;18248;51.522;7.020;2023-03-25T09:56:26;19.30;;;3.90;;
31638;SDS011;18248;51.522;7.020;2023-03-25T09:59:44;19.65;;;4.35;;
31638;SDS011;18248;51.522;7.020;2023-03-25T10:02:49;17.90;;;3.17;;
31638;SDS011;18248;51.522;7.020;2023-03-25T10:06:12;18.63;;;3.75;;
31638;SDS011;18248;51.522;7.020;2023-03-25T10:12:41;19.85;;;2.90;;
31638;SDS011;18248;51.522;7.020;2023-03-25T10:15:52;21.10;;;3.10;;
31638;SDS011;18248;51.522;7.020;2023-03-25T10:22:23;23.52;;;3.20;;
31638;SDS011;18248;51.522;7.020;2023-03-25T10:25:45;22.00;;;3.63;;
31638;SDS011;18248;51.522;7.020;2023-03-25T10:28:55;21.20;;;2.95;;
31638;SDS011;18248;51.522;7.020;2023-03-25T10:31:59;21.95;;;3.15;;
31638;SDS011;18248;51.522;7.020;2023-03-25T10:35:03;24.30;;;3.90;;
31638;SDS011;18248;51.522;7.020;2023-03-25T10:38:11;20.95;;;3.75;;
31638;SDS011;18248;51.522;7.020;2023-03-25T10:41:23;20.60;;;3.60;;
31638;SDS011;18248;51.522;7.020;2023-03-25T10:44:27;17.75;;;3.05;;
31638;SDS011;18248;51.522;7.020;2023-03-25T10:47:29;21.50;;;3.63;;
31638;SDS011;18248;51.522;7.020;2023-03-25T10:50:30;30.10;;;4.53;;
31638;SDS011;18248;51.522;7.020;2023-03-25T10:53:30;21.17;;;3.47;;
31638;SDS011;18248;51.522;7.020;2023-03-25T10:56:35;29.70;;;4.78;;
31638;SDS011;18248;51.522;7.020;2023-03-25T10:59:40;21.73;;;3.97;;
31638;SDS011;18248;51.522;7.020;2023-03-25T11:03:03;21.48;;;4.00;;
31638;SDS011;18248;51.522;7.020;2023-03-25T11:06:03;20.52;;;4.13;;
31638;SDS011;18248;51.522;7.020;2023-03-25T11:09:13;21.92;;;4.75;;
31638;SDS011;18248;51.522;7.020;2023-03-25T11:12:21;26.83;;;4.20;;
31638;SDS011;18248;51.522;7.020;2023-03-25T11:15:21;18.92;;;3.63;;
31638;SDS011;18248;51.522;7.020;2023-03-25T11:18:28;13.73;;;2.92;;
31638;SDS011;18248;51.522;7.020;2023-03-25T11:21:32;12.27;;;2.25;;
31638;SDS011;18248;51.522;7.020;2023-03-25T11:24:32;17.23;;;3.15;;
31638;SDS011;18248;51.522;7.020;2023-03-25T11:27:44;10.18;;;2.08;;
31638;SDS011;18248;51.522;7.020;2023-03-25T11:37:18;13.15;;;2.35;;
31638;SDS011;18248;51.522;7.020;2023-03-25T11:40:19;10.82;;;2.25;;
31638;SDS011;18248;51.522;7.020;2023-03-25T11:43:21;12.77;;;2.38;;
31638;SDS011;18248;51.522;7.020;2023-03-25T11:46:22;10.43;;;2.03;;
31638;SDS011;18248;51.522;7.020;2023-03-25T11:49:21;11.80;;;2.70;;
31638;SDS011;18248;51.522;7.020;2023-03-25T11:52:25;15.77;;;2.53;;
31638;SDS011;18248;51.522;7.020;2023-03-25T11:55:35;11.45;;;2.28;;
31638;SDS011;18248;51.522;7.020;2023-03-25T11:58:40;13.13;;;2.78;;
31638;SDS011;18248;51.522;7.020;2023-03-25T12:04:37;14.18;;;2.70;;
31638;SDS011;18248;51.522;7.020;2023-03-25T12:07:59;14.02;;;2.63;;
31638;SDS011;18248;51.522;7.020;2023-03-25T12:11:28;16.73;;;2.65;;
31638;SDS011;18248;51.522;7.020;2023-03-25T12:28:06;12.35;;;1.95;;
31638;SDS011;18248;51.522;7.020;2023-03-25T12:34:56;15.88;;;2.53;;
31638;SDS011;18248;51.522;7.020;2023-03-25T12:41:20;18.00;;;2.47;;
31638;SDS011;18248;51.522;7.020;2023-03-25T12:44:50;14.68;;;2.40;;
31638;SDS011;18248;51.522;7.020;2023-03-25T12:54:46;9.32;;;2.25;;
31638;SDS011;18248;51.522;7.020;2023-03-25T12:58:23;16.55;;;2.65;;
31638;SDS011;18248;51.522;7.020;2023-03-25T13:01:52;13.93;;;2.80;;
31638;SDS011;18248;51.522;7.020;2023-03-25T13:05:20;12.25;;;2.30;;
31638;SDS011;18248;51.522;7.020;2023-03-25T13:08:54;7.05;;;2.00;;
31638;SDS011;18248;51.522;7.020;2023-03-25T13:15:41;17.55;;;3.05;;
31638;SDS011;18248;51.522;7.020;2023-03-25T13:18:44;18.05;;;3.03;;
31638;SDS011;18248;51.522;7.020;2023-03-25T13:21:48;12.03;;;2.37;;
31638;SDS011;18248;51.522;7.020;2023-03-25T13:24:51;11.75;;;2.17;;
31638;SDS011;18248;51.522;7.020;2023-03-25T13:27:54;11.63;;;2.78;;
31638;SDS011;18248;51.522;7.020;2023-03-25T13:30:56;17.10;;;2.60;;
31638;SDS011;18248;51.522;7.020;2023-03-25T13:33:59;11.05;;;2.15;;
31638;SDS011;18248;51.522;7.020;2023-03-25T13:40:25;8.02;;;1.45;;
31638;SDS011;18248;51.522;7.020;2023-03-25T13:43:44;3.35;;;1.10;;
31638;SDS011;18248;51.522;7.020;2023-03-25T13:47:00;14.43;;;2.10;;
31638;SDS011;18248;51.522;7.020;2023-03-25T13:50:02;6.00;;;1.50;;
31638;SDS011;18248;51.522;7.020;2023-03-25T13:59:44;14.00;;;2.30;;
31638;SDS011;18248;51.522;7.020;2023-03-25T14:03:03;7.88;;;1.80;;
31638;SDS011;18248;51.522;7.020;2023-03-25T14:09:57;12.50;;;2.20;;
31638;SDS011;18248;51.522;7.020;2023-03-25T14:13:12;7.63;;;1.60;;
31638;SDS011;18248;51.522;7.020;2023-03-25T14:16:28;7.47;;;1.70;;
31638;SDS011;18248;51.522;7.020;2023-03-25T14:19:35;6.97;;;1.58;;
31638;SDS011;18248;51.522;7.020;2023-03-25T14:22:39;11.05;;;1.85;;
31638;SDS011;18248;51.522;7.020;2023-03-25T14:25:39;9.35;;;1.58;;
31638;SDS011;18248;51.522;7.020;2023-03-25T14:28:42;7.70;;;1.63;;
31638;SDS011;18248;51.522;7.020;2023-03-25T14:31:57;6.82;;;1.25;;
31638;SDS011;18248;51.522;7.020;2023-03-25T14:35:45;8.20;;;1.40;;
31638;SDS011;18248;51.522;7.020;2023-03-25T14:38:55;9.73;;;2.00;;
31638;SDS011;18248;51.522;7.020;2023-03-25T14:48:42;4.85;;;1.00;;
31638;SDS011;18248;51.522;7.020;2023-03-25T14:51:44;4.38;;;1.17;;
31638;SDS011;18248;51.522;7.020;2023-03-25T14:54:50;4.85;;;1.20;;
31638;SDS011;18248;51.522;7.020;2023-03-25T14:57:55;6.63;;;1.40;;
31638;SDS011;18248;51.522;7.020;2023-03-25T15:01:21;7.15;;;1.33;;
31638;SDS011;18248;51.522;7.020;2023-03-25T15:04:30;5.20;;;1.23;;
31638;SDS011;18248;51.522;7.020;2023-03-25T15:07:50;9.32;;;2.17;;
31638;SDS011;18248;51.522;7.020;2023-03-25T15:11:03;7.45;;;1.50;;
31638;SDS011;18248;51.522;7.020;2023-03-25T15:20:38;6.53;;;1.98;;
31638;SDS011;18248;51.522;7.020;2023-03-25T15:23:39;6.30;;;1.48;;
31638;SDS011;18248;51.522;7.020;2023-03-25T15:26:43;6.68;;;1.73;;
31638;SDS011;18248;51.522;7.020;2023-03-25T15:36:28;9.77;;;3.28;;
31638;SDS011;18248;51.522;7.020;2023-03-25T15:39:39;7.90;;;1.70;;
31638;SDS011;18248;51.522;7.020;2023-03-25T15:55:54;6.85;;;1.63;;
31638;SDS011;18248;51.522;7.020;2023-03-25T15:59:00;14.95;;;2.28;;
31638;SDS011;18248;51.522;7.020;2023-03-25T16:02:10;14.25;;;2.45;;
31638;SDS011;18248;51.522;7.020;2023-03-25T16:05:14;11.48;;;2.53;;
31638;SDS011;18248;51.522;7.020;2023-03-25T16:08:16;16.80;;;2.38;;
31638;SDS011;18248;51.522;7.020;2023-03-25T16:11:26;14.38;;;2.10;;
31638;SDS011;18248;51.522;7.020;2023-03-25T16:14:28;12.40;;;3.07;;
31638;SDS011;18248;51.522;7.020;2023-03-25T16:17:30;13.55;;;3.08;;
31638;SDS011;18248;51.522;7.020;2023-03-25T16:20:31;13.50;;;3.22;;
31638;SDS011;18248;51.522;7.020;2023-03-25T16:23:32;15.13;;;2.80;;
31638;SDS011;18248;51.522;7.020;2023-03-25T16:26:35;16.98;;;3.05;;
31638;SDS011;18248;51.522;7.020;2023-03-25T16:29:46;11.10;;;2.95;;
31638;SDS011;18248;51.522;7.020;2023-03-25T16:32:45;19.33;;;3.33;;
31638;SDS011;18248;51.522;7.020;2023-03-25T16:35:44;16.02;;;3.60;;
31638;SDS011;18248;51.522;7.020;2023-03-25T16:38:50;18.27;;;3.75;;
31638;SDS011;18248;51.522;7.020;2023-03-25T16:41:49;15.55;;;4.25;;
31638;SDS011;18248;51.522;7.020;2023-03-25T16:44:49;18.23;;;3.97;;
31638;SDS011;18248;51.522;7.020;2023-03-25T16:47:48;24.67;;;3.97;;
31638;SDS011;18248;51.522;7.020;2023-03-25T16:50:47;17.02;;;3.53;;
31638;SDS011;18248;51.522;7.020;2023-03-25T16:53:49;19.15;;;3.85;;
31638;SDS011;18248;51.522;7.020;2023-03-25T16:56:50;15.13;;;3.63;;
31638;SDS011;18248;51.522;7.020;2023-03-25T16:59:50;20.08;;;4.85;;
31638;SDS011;18248;51.522;7.020;2023-03-25T17:02:51;19.42;;;3.60;;
31638;SDS011;18248;51.522;7.020;2023-03-25T17:05:51;34.22;;;14.05;;
31638;SDS011;18248;51.522;7.020;2023-03-25T17:08:58;19.33;;;3.97;;
31638;SDS011;18248;51.522;7.020;2023-03-25T17:11:56;19.35;;;3.60;;
31638;SDS011;18248;51.522;7.020;2023-03-25T17:14:57;16.92;;;3.22;;
31638;SDS011;18248;51.522;7.020;2023-03-25T17:18:08;18.35;;;3.88;;
31638;SDS011;18248;51.522;7.020;2023-03-25T17:21:18;19.58;;;4.20;;
31638;SDS011;18248;51.522;7.020;2023-03-25T17:24:21;18.02;;;4.43;;
31638;SDS011;18248;51.522;7.020;2023-03-25T17:27:25;19.27;;;4.10;;
31638;SDS011;18248;51.522;7.020;2023-03-25T17:30:40;22.88;;;4.25;;
31638;SDS011;18248;51.522;7.020;2023-03-25T17:33:41;13.38;;;3.22;;
31638;SDS011;18248;51.522;7.020;2023-03-25T17:36:47;28.02;;;4.10;;
31638;SDS011;18248;51.522;7.020;2023-03-25T17:39:54;25.83;;;4.78;;
31638;SDS011;18248;51.522;7.020;2023-03-25T17:42:54;21.63;;;4.38;;
31638;SDS011;18248;51.522;7.020;2023-03-25T17:45:54;19.30;;;3.78;;
31638;SDS011;18248;51.522;7.020;2023-03-25T17:48:52;18.98;;;3.80;;
31638;SDS011;18248;51.522;7.020;2023-03-25T17:51:54;18.15;;;4.20;;
31638;SDS011;18248;51.522;7.020;2023-03-25T17:54:52;15.02;;;3.53;;
31638;SDS011;18248;51.522;7.020;2023-03-25T17:57:51;26.00;;;4.20;;
31638;SDS011;18248;51.522;7.020;2023-03-25T18:00:51;19.00;;;3.40;;
31638;SDS011;18248;51.522;7.020;2023-03-25T18:03:50;16.35;;;4.13;;
31638;SDS011;18248;51.522;7.020;2023-03-25T18:06:48;20.20;;;3.78;;
31638;SDS011;18248;51.522;7.020;2023-03-25T18:09:48;23.98;;;3.67;;
31638;SDS011;18248;51.522;7.020;2023-03-25T18:12:46;21.20;;;4.13;;
31638;SDS011;18248;51.522;7.020;2023-03-25T18:15:46;19.98;;;3.55;;
31638;SDS011;18248;51.522;7.020;2023-03-25T18:18:48;22.17;;;4.57;;
31638;SDS011;18248;51.522;7.020;2023-03-25T18:21:47;21.33;;;3.60;;
31638;SDS011;18248;51.522;7.020;2023-03-25T18:24:45;23.02;;;3.70;;
31638;SDS011;18248;51.522;7.020;2023-03-25T18:27:50;16.38;;;3.38;;
31638;SDS011;18248;51.522;7.020;2023-03-25T18:30:54;18.02;;;4.45;;
31638;SDS011;18248;51.522;7.020;2023-03-25T18:33:55;17.35;;;3.65;;
31638;SDS011;18248;51.522;7.020;2023-03-25T18:36:54;22.55;;;3.67;;
31638;SDS011;18248;51.522;7.020;2023-03-25T18:39:52;16.98;;;2.95;;
31638;SDS011;18248;51.522;7.020;2023-03-25T18:42:51;14.32;;;3.55;;
31638;SDS011;18248;51.522;7.020;2023-03-25T18:45:53;17.42;;;3.20;;
31638;SDS011;18248;51.522;7.020;2023-03-25T18:48:51;18.65;;;2.90;;
31638;SDS011;18248;51.522;7.020;2023-03-25T18:51:51;19.10;;;3.47;;
31638;SDS011;18248;51.522;7.020;2023-03-25T18:54:50;18.20;;;3.22;;
31638;SDS011;18248;51.522;7.020;2023-03-25T18:57:48;14.55;;;2.83;;
31638;SDS011;18248;51.522;7.020;2023-03-25T19:00:47;23.02;;;3.63;;
31638;SDS011;18248;51.522;7.020;2023-03-25T19:03:49;21.75;;;3.42;;
31638;SDS011;18248;51.522;7.020;2023-03-25T19:06:48;18.83;;;3.22;;
31638;SDS011;18248;51.522;7.020;2023-03-25T19:09:49;20.02;;;3.47;;
31638;SDS011;18248;51.522;7.020;2023-03-25T19:12:48;22.58;;;3.95;;
31638;SDS011;18248;51.522;7.020;2023-03-25T19:15:47;19.58;;;3.33;;
31638;SDS011;18248;51.522;7.020;2023-03-25T19:18:45;14.30;;;3.15;;
31638;SDS011;18248;51.522;7.020;2023-03-25T19:21:44;23.98;;;4.65;;
31638;SDS011;18248;51.522;7.020;2023-03-25T19:24:43;18.83;;;3.55;;
31638;SDS011;18248;51.522;7.020;2023-03-25T19:27:41;11.02;;;2.75;;
31638;SDS011;18248;51.522;7.020;2023-03-25T19:30:41;17.92;;;4.03;;
31638;SDS011;18248;51.522;7.020;2023-03-25T19:33:42;23.52;;;4.10;;
31638;SDS011;18248;51.522;7.020;2023-03-25T19:36:40;18.45;;;3.85;;
31638;SDS011;18248;51.522;7.020;2023-03-25T19:39:39;32.33;;;4.75;;
31638;SDS011;18248;51.522;7.020;2023-03-25T19:42:39;16.60;;;4.13;;
31638;SDS011;18248;51.522;7.020;2023-03-25T19:45:39;32.13;;;5.22;;
31638;SDS011;18248;51.522;7.020;2023-03-25T19:48:37;26.02;;;4.85;;
31638;SDS011;18248;51.522;7.020;2023-03-25T19:51:36;17.88;;;2.92;;
31638;SDS011;18248;51.522;7.020;2023-03-25T19:54:35;16.73;;;4.20;;
31638;SDS011;18248;51.522;7.020;2023-03-25T19:57:33;17.90;;;3.83;;
31638;SDS011;18248;51.522;7.020;2023-03-25T20:00:32;20.00;;;3.17;;
31638;SDS011;18248;51.522;7.020;2023-03-25T20:03:31;10.55;;;2.78;;
31638;SDS011;18248;51.522;7.020;2023-03-25T20:06:32;10.32;;;2.72;;
31638;SDS011;18248;51.522;7.020;2023-03-25T20:09:30;13.48;;;2.72;;
31638;SDS011;18248;51.522;7.020;2023-03-25T20:12:29;14.38;;;3.17;;